ワシントン/ダレス の空港の天気 - METARとTAF

ワシントン・ダレス国際空港 ( KIAD / IAD ) - アメリカ バージニア州ダレス
飛行場実況気象(Metar)
観測時間02/05 14:52 EST (02/05 19:52 UTC)
風向・風速南 7m/s 瞬間風速10m/s
視程10km以上
天気現象
全天の8割程度の雲 雲底高度 1520m
気温12.8℃
湿度26%
気圧1017.5hPa
METARKIAD 051952Z 18013G19KT 10SM BKN050 13/M06 A3004 RMK AO2 SLP175 T01281061
過去の天気等 Google飛行場航空写真 Wunderground天気予報

過去48時間のMETAR

飛行場予報(TAF)
発表時間: 2/05 12:31 EST (2/05 17:31 UTC)
予報対象時間: 5日13時 EST ~ 6日19時 EST
風向・風速南 6m/s 瞬間風速 10m/s
視程10km以上
少しの雲 雲底高度 6100m
全天の8割程度の雲 雲底高度 7620m
5日22時 EST から
風向・風速南南西 4m/s
視程10km以上
全天の4割程度の雲 雲底高度 3960m
6日2時 EST から
風向・風速西南西 2m/s
視程10km以上
全天の4割程度の雲 雲底高度 2440m
6日5時 EST から
風向・風速西北西 3m/s
視程10km以上
全天の4割程度の雲 雲底高度 3050m
6日10時 EST から
風向・風速北西 6m/s 瞬間風速 10m/s
視程10km以上
少しの雲 雲底高度 7620m
KIAD 051731Z 0518/0624 19012G19KT P6SM FEW200 BKN250
FM060300 21007KT P6SM SCT130
FM060700 25003KT P6SM SCT080
FM061000 30006KT P6SM SCT100
FM061500 32012G19KT P6SM FEW250